Time;durP1;ratioP1;P1;durP2;ratioP2;P2;SDS_P1;SDS_P2;PMS_P1;PMS_P2;Temp;Humidity;BMP_temperature;BMP_pressure;BME280_temperature;BME280_humidity;BME280_pressure;Samples;Min_cycle;Max_cycle;Signal;HPM_P1;HPM_P2
2022/09/29 00:01:30;;;;;;;3.70;3.40;;;7.50;99.90;;;;;;4918606;29;20272;-73
2022/09/29 00:03:56;;;;;;;3.17;2.80;;;7.40;99.90;;;;;;4918144;29;20600;-74
2022/09/29 00:06:21;;;;;;;3.10;2.80;;;7.40;99.90;;;;;;4932667;29;20210;-73
2022/09/29 00:08:47;;;;;;;2.73;2.40;;;7.20;99.90;;;;;;4918457;29;20311;-73
2022/09/29 00:11:16;;;;;;;3.75;2.45;;;7.20;99.90;;;;;;4917100;29;20647;-73
2022/09/29 00:13:42;;;;;;;3.33;2.80;;;7.20;99.90;;;;;;4918206;29;20224;-73
2022/09/29 00:16:08;;;;;;;2.58;2.38;;;7.20;99.90;;;;;;4932462;29;20217;-73
2022/09/29 00:18:34;;;;;;;2.40;2.20;;;7.10;99.90;;;;;;4918281;29;20182;-73
2022/09/29 00:21:02;;;;;;;2.35;2.15;;;7.10;99.90;;;;;;4918164;29;20686;-73
2022/09/29 00:23:29;;;;;;;2.85;2.35;;;7.00;99.90;;;;;;4918175;29;20224;-73
2022/09/29 00:26:05;;;;;;;3.75;2.65;;;7.00;99.90;;;;;;4917629;29;20193;-73
2022/09/29 00:28:31;;;;;;;2.45;2.25;;;6.90;99.90;;;;;;4918362;29;20313;-73
2022/09/29 00:30:59;;;;;;;2.83;2.63;;;6.90;99.90;;;;;;4918101;29;20183;-73
2022/09/29 00:33:27;;;;;;;2.88;2.35;;;6.80;99.90;;;;;;4917877;29;20204;-73
2022/09/29 00:36:01;;;;;;;3.08;2.72;;;6.90;99.90;;;;;;4917433;29;20205;-73
2022/09/29 00:38:28;;;;;;;3.65;2.40;;;6.90;99.90;;;;;;4901096;29;20183;-73
2022/09/29 00:40:55;;;;;;;2.60;2.40;;;6.80;99.90;;;;;;4919054;29;20186;-73
2022/09/29 00:43:48;;;;;;;2.55;2.35;;;6.80;99.90;;;;;;4917764;29;20638;-73
2022/09/29 00:46:18;;;;;;;3.17;2.72;;;6.70;99.90;;;;;;4898825;29;20220;-73
2022/09/29 00:48:43;;;;;;;3.80;2.45;;;6.70;99.90;;;;;;4899294;29;20550;-74
2022/09/29 00:51:09;;;;;;;2.70;2.50;;;6.70;99.90;;;;;;4904234;29;20194;-73
2022/09/29 00:53:35;;;;;;;2.93;2.50;;;6.60;99.90;;;;;;4916634;29;20540;-74
2022/09/29 00:56:05;;;;;;;2.63;2.43;;;6.60;99.90;;;;;;4933378;29;20966;-74
2022/09/29 00:58:41;;;;;;;4.22;2.60;;;6.60;99.90;;;;;;4936717;29;20209;-74
2022/09/29 01:01:07;;;;;;;2.60;2.38;;;6.60;99.90;;;;;;4936683;29;20196;-73
2022/09/29 01:03:39;;;;;;;5.80;3.30;;;6.50;99.90;;;;;;4935238;29;20273;-74
2022/09/29 01:06:25;;;;;;;3.50;3.20;;;6.50;99.90;;;;;;4935505;29;20204;-73
2022/09/29 01:09:00;;;;;;;3.65;3.35;;;6.50;99.90;;;;;;4936572;29;20521;-74
2022/09/29 01:11:26;;;;;;;3.10;2.78;;;6.40;99.90;;;;;;4936449;29;20178;-73
2022/09/29 01:13:53;;;;;;;3.65;2.97;;;6.40;99.90;;;;;;4935988;29;20211;-73
2022/09/29 01:16:19;;;;;;;2.90;2.70;;;6.30;99.90;;;;;;4950287;29;20573;-73
2022/09/29 01:18:46;;;;;;;2.73;2.53;;;6.40;99.90;;;;;;4936386;29;20181;-73
2022/09/29 01:21:56;;;;;;;3.08;2.78;;;6.30;99.90;;;;;;4936260;29;20910;-74
2022/09/29 01:24:28;;;;;;;2.97;2.70;;;6.30;99.90;;;;;;4940059;29;20232;-73
2022/09/29 01:27:02;;;;;;;3.42;3.10;;;6.30;99.90;;;;;;4936122;29;20201;-73
2022/09/29 01:29:46;;;;;;;3.42;3.05;;;6.20;99.90;;;;;;4936198;29;20181;-74
2022/09/29 01:32:23;;;;;;;4.30;3.65;;;6.20;99.90;;;;;;4936247;29;20178;-73
2022/09/29 01:34:57;;;;;;;3.10;2.80;;;6.20;99.90;;;;;;4935806;29;20637;-73
2022/09/29 01:37:49;;;;;;;3.08;2.85;;;6.20;99.90;;;;;;4935981;29;20233;-73
2022/09/29 01:40:22;;;;;;;3.70;3.40;;;6.20;99.90;;;;;;4938647;29;20200;-73
2022/09/29 01:43:02;;;;;;;3.35;2.45;;;6.10;99.90;;;;;;4936139;29;20532;-73
2022/09/29 01:45:31;;;;;;;3.67;3.00;;;6.10;99.90;;;;;;4935425;29;20173;-73
2022/09/29 01:48:06;;;;;;;4.00;2.92;;;6.00;99.90;;;;;;4935973;29;20206;-74
2022/09/29 01:50:38;;;;;;;4.50;2.78;;;5.90;99.90;;;;;;4935942;29;20176;-73
2022/09/29 01:53:11;;;;;;;3.80;2.60;;;5.90;99.90;;;;;;4936135;29;20181;-73
2022/09/29 01:55:44;;;;;;;3.92;3.30;;;5.90;99.90;;;;;;4935681;29;20199;-74
2022/09/29 01:58:29;;;;;;;4.53;3.10;;;5.80;99.90;;;;;;4935813;29;20196;-73
2022/09/29 02:00:59;;;;;;;3.33;3.10;;;5.80;99.90;;;;;;4936181;29;20184;-74
2022/09/29 02:03:48;;;;;;;8.98;3.70;;;5.80;99.90;;;;;;4937698;29;20642;-73
2022/09/29 02:06:23;;;;;;;3.60;3.30;;;5.80;99.90;;;;;;4954760;29;20208;-73
2022/09/29 02:08:52;;;;;;;7.28;3.78;;;5.70;99.90;;;;;;4955042;29;20223;-74
2022/09/29 02:11:19;;;;;;;12.45;3.10;;;5.70;99.90;;;;;;4951085;29;20235;-73
2022/09/29 02:14:07;;;;;;;6.38;3.83;;;5.70;99.90;;;;;;4918485;29;20664;-73
2022/09/29 02:16:41;;;;;;;3.25;2.95;;;5.70;99.90;;;;;;4936084;29;20197;-73
2022/09/29 02:19:17;;;;;;;4.63;3.50;;;5.70;99.90;;;;;;4939575;29;20213;-73
2022/09/29 02:21:43;;;;;;;3.50;3.05;;;5.70;99.90;;;;;;4945836;29;20252;-73
2022/09/29 02:24:11;;;;;;;5.13;3.73;;;5.60;99.90;;;;;;4958061;29;20173;-73
2022/09/29 02:26:36;;;;;;;9.70;3.28;;;5.60;99.90;;;;;;4957256;29;20208;-73
2022/09/29 02:29:03;;;;;;;3.43;3.13;;;5.60;99.90;;;;;;4958539;29;20181;-73
2022/09/29 02:31:30;;;;;;;4.55;3.10;;;5.60;99.90;;;;;;4953918;29;20181;-73
2022/09/29 02:33:56;;;;;;;3.30;3.00;;;5.60;99.90;;;;;;4938736;29;20227;-74
2022/09/29 02:36:41;;;;;;;5.55;3.88;;;5.60;99.90;;;;;;4939232;29;20196;-73
2022/09/29 02:39:50;;;;;;;3.72;3.40;;;5.50;99.90;;;;;;4939191;29;20578;-73
2022/09/29 02:42:39;;;;;;;4.93;3.72;;;5.50;99.90;;;;;;4897487;29;20267;-73
2022/09/29 02:45:31;;;;;;;3.67;3.38;;;5.50;99.90;;;;;;4956756;28;20239;-73
2022/09/29 02:48:10;;;;;;;7.60;4.65;;;5.50;99.90;;;;;;4957182;28;20267;-73
2022/09/29 02:50:49;;;;;;;4.65;3.20;;;5.40;99.90;;;;;;4947855;29;20197;-73
2022/09/29 02:53:48;;;;;;;4.28;3.72;;;5.40;99.90;;;;;;4937715;29;20178;-73
2022/09/29 02:56:57;;;;;;;5.13;3.78;;;5.40;99.90;;;;;;4919757;29;20194;-73
2022/09/29 02:59:29;;;;;;;4.03;3.63;;;5.30;99.90;;;;;;4920025;29;20574;-73
2022/09/29 03:01:56;;;;;;;4.03;3.13;;;5.30;99.90;;;;;;4919786;29;20182;-73
2022/09/29 03:04:25;;;;;;;7.55;3.65;;;5.20;99.90;;;;;;4923093;29;20193;-74
2022/09/29 03:06:51;;;;;;;4.18;3.70;;;5.20;99.90;;;;;;4938726;29;20676;-73
2022/09/29 03:09:17;;;;;;;6.25;4.28;;;5.30;99.90;;;;;;4937481;29;20212;-74
2022/09/29 03:11:43;;;;;;;4.20;3.83;;;5.20;99.90;;;;;;4938749;29;20181;-74
2022/09/29 03:14:08;;;;;;;7.60;4.23;;;5.20;99.90;;;;;;4937849;29;20458;-73
2022/09/29 03:16:36;;;;;;;5.10;4.70;;;5.10;99.90;;;;;;4938378;29;20201;-74
2022/09/29 03:19:04;;;;;;;4.20;3.85;;;5.20;99.90;;;;;;4938433;29;20205;-73
2022/09/29 03:21:29;;;;;;;4.38;3.95;;;5.10;99.90;;;;;;4938391;29;20165;-73
2022/09/29 03:23:55;;;;;;;5.27;4.77;;;5.10;99.90;;;;;;4938002;29;20181;-73
2022/09/29 03:26:22;;;;;;;4.90;4.07;;;5.10;99.90;;;;;;4938134;29;20714;-73
2022/09/29 03:28:51;;;;;;;4.88;4.47;;;5.10;99.90;;;;;;4937106;29;20548;-73
2022/09/29 03:31:17;;;;;;;5.85;4.88;;;5.10;99.90;;;;;;4921505;29;20197;-73
2022/09/29 03:33:43;;;;;;;5.05;4.63;;;5.00;99.90;;;;;;4921019;29;20213;-73
2022/09/29 03:36:10;;;;;;;4.50;4.07;;;5.00;99.90;;;;;;4937752;29;20207;-73
2022/09/29 03:38:37;;;;;;;5.25;4.60;;;4.90;99.90;;;;;;4937998;29;20496;-73
2022/09/29 03:41:03;;;;;;;4.80;4.20;;;4.90;99.90;;;;;;4938167;29;20194;-73
2022/09/29 03:43:29;;;;;;;5.53;3.83;;;5.00;99.90;;;;;;4938113;29;20569;-73
2022/09/29 03:45:55;;;;;;;4.60;4.20;;;4.90;99.90;;;;;;4937398;29;20207;-73
2022/09/29 03:48:22;;;;;;;4.93;4.53;;;4.90;99.90;;;;;;4938162;29;20630;-73
2022/09/29 03:50:49;;;;;;;9.60;4.53;;;4.90;99.90;;;;;;4937930;29;20441;-73
2022/09/29 03:53:16;;;;;;;5.35;4.75;;;4.90;99.90;;;;;;4955307;29;20189;-73
2022/09/29 03:55:46;;;;;;;6.82;4.32;;;4.80;99.90;;;;;;4944026;29;20249;-73
2022/09/29 03:58:11;;;;;;;5.55;4.82;;;4.70;99.90;;;;;;4937907;29;20180;-73
2022/09/29 04:00:37;;;;;;;5.20;4.23;;;4.70;99.90;;;;;;4936429;29;20201;-73
2022/09/29 04:03:03;;;;;;;6.90;5.00;;;4.70;99.90;;;;;;4936412;29;20607;-72
2022/09/29 04:05:29;;;;;;;6.57;4.40;;;4.70;99.90;;;;;;4937214;29;20304;-73
2022/09/29 04:07:55;;;;;;;6.80;4.90;;;4.70;99.90;;;;;;4937389;29;20461;-73
2022/09/29 04:10:21;;;;;;;7.00;5.37;;;4.70;99.90;;;;;;4937582;29;20178;-73
2022/09/29 04:12:47;;;;;;;5.40;4.90;;;4.70;99.90;;;;;;4936242;29;20266;-73
2022/09/29 04:15:12;;;;;;;6.90;5.57;;;4.70;99.90;;;;;;4936734;29;20241;-73
2022/09/29 04:17:38;;;;;;;6.07;4.60;;;4.70;99.90;;;;;;4932893;29;20683;-73
2022/09/29 04:20:04;;;;;;;9.83;5.17;;;4.70;99.90;;;;;;4918367;29;20186;-72
2022/09/29 04:22:29;;;;;;;5.50;5.00;;;4.80;99.90;;;;;;4918322;29;20188;-73
2022/09/29 04:24:55;;;;;;;5.40;4.90;;;4.70;99.90;;;;;;4922059;29;20430;-73
2022/09/29 04:27:21;;;;;;;5.10;4.63;;;4.70;99.90;;;;;;4937000;29;20299;-73
2022/09/29 04:29:46;;;;;;;7.33;5.00;;;4.70;99.90;;;;;;4937192;29;20425;-73
2022/09/29 04:32:12;;;;;;;5.50;5.00;;;4.70;99.90;;;;;;4937297;29;20258;-73
2022/09/29 04:34:38;;;;;;;7.47;4.70;;;4.70;99.90;;;;;;4935271;29;20212;-73
2022/09/29 04:37:10;;;;;;;5.73;4.93;;;4.60;99.90;;;;;;4936633;29;20484;-74
2022/09/29 04:39:36;;;;;;;7.60;5.15;;;4.60;99.90;;;;;;4936978;29;20181;-73
2022/09/29 04:42:01;;;;;;;7.57;5.53;;;4.60;99.90;;;;;;4937014;29;20521;-73
2022/09/29 04:44:27;;;;;;;6.73;4.67;;;4.60;99.90;;;;;;4936555;29;20455;-73
2022/09/29 04:46:52;;;;;;;6.03;5.43;;;4.60;99.90;;;;;;4950122;29;20247;-73
2022/09/29 04:49:19;;;;;;;6.23;5.30;;;4.60;99.90;;;;;;4936804;29;20710;-73
2022/09/29 04:51:45;;;;;;;5.55;4.55;;;4.70;99.90;;;;;;4947144;29;20195;-73
2022/09/29 04:54:11;;;;;;;5.15;4.65;;;4.70;99.90;;;;;;4952368;29;20221;-73
2022/09/29 04:56:36;;;;;;;5.40;4.90;;;4.70;99.90;;;;;;4936636;29;20198;-73
2022/09/29 04:59:03;;;;;;;6.10;5.00;;;4.70;99.90;;;;;;4936621;29;20420;-73
2022/09/29 05:01:29;;;;;;;5.53;4.93;;;4.70;99.90;;;;;;4936513;29;20264;-73
2022/09/29 05:03:55;;;;;;;6.97;4.63;;;4.60;99.90;;;;;;4918958;29;20612;-74
2022/09/29 05:06:20;;;;;;;5.93;5.32;;;4.60;99.90;;;;;;4952456;29;20452;-73
2022/09/29 05:08:46;;;;;;;7.67;5.80;;;4.60;99.90;;;;;;4939840;29;20185;-73
2022/09/29 05:11:12;;;;;;;7.93;5.57;;;4.60;99.90;;;;;;4949808;29;20985;-73
2022/09/29 05:13:38;;;;;;;5.73;5.13;;;4.60;99.90;;;;;;4936338;29;20197;-73
2022/09/29 05:16:04;;;;;;;5.60;5.10;;;4.70;99.90;;;;;;4935648;29;20441;-74
2022/09/29 05:18:29;;;;;;;6.13;5.28;;;4.70;99.90;;;;;;4935078;29;20213;-72
2022/09/29 05:20:55;;;;;;;7.00;5.73;;;4.70;99.90;;;;;;4938946;29;20199;-73
2022/09/29 05:23:21;;;;;;;6.20;5.20;;;4.70;99.90;;;;;;4936196;29;20667;-73
2022/09/29 05:25:47;;;;;;;6.60;6.00;;;4.70;99.90;;;;;;4935988;29;20205;-72
2022/09/29 05:28:16;;;;;;;6.97;5.55;;;4.70;99.90;;;;;;4936490;29;20638;-73
2022/09/29 05:30:42;;;;;;;6.60;6.00;;;4.70;99.90;;;;;;4937354;29;20596;-73
2022/09/29 05:33:08;;;;;;;8.60;5.67;;;4.80;99.90;;;;;;4953694;29;20242;-73
2022/09/29 05:35:33;;;;;;;14.77;5.73;;;4.80;99.90;;;;;;4954670;29;20569;-73
2022/09/29 05:37:59;;;;;;;7.17;6.40;;;4.90;99.90;;;;;;4955194;29;20705;-73
2022/09/29 05:40:25;;;;;;;6.20;5.40;;;4.90;99.90;;;;;;4950270;29;20213;-72
2022/09/29 05:42:51;;;;;;;6.05;5.45;;;4.90;99.90;;;;;;4936068;29;20174;-73
2022/09/29 05:45:17;;;;;;;7.23;5.30;;;4.90;99.90;;;;;;4934346;29;20231;-73
2022/09/29 05:47:44;;;;;;;6.40;5.80;;;4.90;99.90;;;;;;4935227;29;20678;-74
2022/09/29 05:50:13;;;;;;;9.57;5.93;;;4.90;99.90;;;;;;4937477;29;20428;-73
2022/09/29 05:52:39;;;;;;;9.48;6.03;;;4.90;99.90;;;;;;4954448;28;20206;-73
2022/09/29 05:55:08;;;;;;;6.07;5.50;;;4.90;99.90;;;;;;4954807;29;20205;-74
2022/09/29 05:57:34;;;;;;;6.32;5.28;;;4.90;99.90;;;;;;4954816;29;20197;-73
2022/09/29 06:00:01;;;;;;;6.60;5.38;;;5.00;99.90;;;;;;4954814;29;20177;-74
2022/09/29 06:02:26;;;;;;;7.68;6.45;;;4.90;99.90;;;;;;4935922;29;20827;-73
2022/09/29 06:04:52;;;;;;;9.80;6.37;;;5.00;99.90;;;;;;4935696;29;20268;-73
2022/09/29 06:07:17;;;;;;;9.10;6.20;;;5.00;99.90;;;;;;4934565;29;20570;-73
2022/09/29 06:09:43;;;;;;;10.03;5.87;;;5.00;99.90;;;;;;4935664;29;20254;-73
2022/09/29 06:12:08;;;;;;;9.03;6.67;;;5.00;99.90;;;;;;4952582;29;20207;-72
2022/09/29 06:14:34;;;;;;;5.60;5.10;;;5.10;99.90;;;;;;4954494;29;20221;-73
2022/09/29 06:17:00;;;;;;;5.93;5.30;;;5.10;99.90;;;;;;4954774;29;20212;-73
2022/09/29 06:19:25;;;;;;;6.10;5.50;;;5.20;99.90;;;;;;4954707;29;20184;-73
2022/09/29 06:21:51;;;;;;;15.67;6.07;;;5.30;99.90;;;;;;4940051;29;20200;-73
2022/09/29 06:24:16;;;;;;;8.10;6.07;;;5.30;99.90;;;;;;4934146;29;20276;-73
2022/09/29 06:26:42;;;;;;;6.37;5.70;;;5.40;99.90;;;;;;4935701;29;20211;-72
2022/09/29 06:29:07;;;;;;;7.13;6.53;;;5.50;99.90;;;;;;4934489;29;20197;-73
2022/09/29 06:31:33;;;;;;;7.00;6.30;;;5.50;99.90;;;;;;4946505;29;20196;-73
2022/09/29 06:34:01;;;;;;;10.40;6.93;;;5.70;99.90;;;;;;4954312;29;20204;-73
2022/09/29 06:39:19;;;;;;;7.28;6.50;;;5.80;99.90;;;;;;4955152;29;20190;-74
2022/09/29 06:41:50;;;;;;;7.25;6.57;;;5.90;99.90;;;;;;4942136;29;20298;-73
2022/09/29 06:44:17;;;;;;;11.38;7.40;;;6.00;99.90;;;;;;4934395;29;20534;-73
2022/09/29 06:46:42;;;;;;;8.25;6.75;;;6.10;99.90;;;;;;4935600;29;20226;-73
2022/09/29 06:49:11;;;;;;;9.30;7.53;;;6.10;99.90;;;;;;4935523;29;20588;-73
2022/09/29 06:51:36;;;;;;;8.27;7.38;;;6.20;99.90;;;;;;4946094;29;20449;-72
2022/09/29 06:54:02;;;;;;;8.47;7.20;;;6.30;99.90;;;;;;4952260;29;20567;-74
2022/09/29 06:56:28;;;;;;;11.10;7.80;;;6.30;99.90;;;;;;4935473;29;20209;-73
2022/09/29 06:58:54;;;;;;;11.63;8.00;;;6.40;99.90;;;;;;4935405;29;20185;-73
2022/09/29 07:01:19;;;;;;;12.20;7.53;;;6.40;99.90;;;;;;4935367;29;20421;-73
2022/09/29 07:03:45;;;;;;;12.77;8.47;;;6.50;99.90;;;;;;4937352;29;20185;-73
2022/09/29 07:06:10;;;;;;;11.27;8.10;;;6.60;99.90;;;;;;4954299;29;20567;-74
2022/09/29 07:08:38;;;;;;;9.63;7.33;;;6.60;99.90;;;;;;4957785;29;20181;-74
2022/09/29 07:11:05;;;;;;;11.65;7.70;;;6.70;99.90;;;;;;4956724;29;20180;-73
2022/09/29 07:13:31;;;;;;;8.02;7.25;;;6.70;99.90;;;;;;4957675;29;20192;-73
2022/09/29 07:16:05;;;;;;;8.90;8.00;;;6.80;99.90;;;;;;4941889;29;20216;-73
2022/09/29 07:18:32;;;;;;;12.35;8.98;;;6.90;99.90;;;;;;4938467;29;20173;-73
2022/09/29 07:20:58;;;;;;;10.10;7.78;;;6.80;99.90;;;;;;4938514;29;20269;-73
2022/09/29 07:23:24;;;;;;;8.93;8.10;;;6.90;99.90;;;;;;4937185;29;20217;-73
2022/09/29 07:25:50;;;;;;;9.65;7.82;;;6.90;99.90;;;;;;4951819;29;20672;-74
2022/09/29 07:28:16;;;;;;;9.60;8.20;;;6.90;99.90;;;;;;4957410;29;20316;-73
2022/09/29 07:30:42;;;;;;;11.20;8.40;;;6.90;99.90;;;;;;4957513;29;20766;-73
2022/09/29 07:33:07;;;;;;;10.57;7.90;;;7.00;99.90;;;;;;4956355;29;20188;-73
2022/09/29 07:35:33;;;;;;;8.93;8.13;;;7.00;99.90;;;;;;4945340;29;20810;-72
2022/09/29 07:37:58;;;;;;;9.63;8.27;;;7.10;99.90;;;;;;4937209;29;20210;-73
2022/09/29 07:40:26;;;;;;;8.07;7.27;;;7.30;99.90;;;;;;4938248;29;20180;-74
2022/09/29 07:42:52;;;;;;;9.55;7.85;;;7.30;99.90;;;;;;4938170;29;20184;-73
2022/09/29 07:45:18;;;;;;;10.53;8.10;;;7.40;99.90;;;;;;4933585;29;20269;-73
2022/09/29 07:47:43;;;;;;;7.80;7.00;;;7.50;99.90;;;;;;4919050;29;20698;-73
2022/09/29 07:50:10;;;;;;;8.00;6.50;;;7.60;99.90;;;;;;4918919;29;20230;-73
2022/09/29 07:52:35;;;;;;;8.27;7.20;;;7.60;99.90;;;;;;4918868;29;20722;-73
2022/09/29 07:55:02;;;;;;;10.23;7.67;;;7.90;99.90;;;;;;4925698;29;20224;-73
2022/09/29 07:57:28;;;;;;;9.35;7.05;;;7.80;99.90;;;;;;4952601;29;20212;-73
2022/09/29 07:59:56;;;;;;;8.23;7.30;;;7.90;99.90;;;;;;4937851;29;20272;-72
2022/09/29 08:02:22;;;;;;;9.93;7.53;;;8.00;99.90;;;;;;4937671;29;20173;-73
2022/09/29 08:04:47;;;;;;;10.30;8.13;;;8.10;99.90;;;;;;4937285;29;20205;-73
2022/09/29 08:07:13;;;;;;;9.90;7.27;;;8.10;99.90;;;;;;4937489;29;20256;-73
2022/09/29 08:09:39;;;;;;;11.10;7.40;;;8.30;99.90;;;;;;4937639;29;20647;-73
2022/09/29 08:12:04;;;;;;;7.67;6.90;;;8.30;99.90;;;;;;4952220;29;20186;-72
2022/09/29 08:14:30;;;;;;;8.73;7.53;;;8.40;99.90;;;;;;4936170;29;20241;-74
2022/09/29 08:16:55;;;;;;;9.80;8.30;;;8.50;99.90;;;;;;4937438;29;20209;-73
2022/09/29 08:19:21;;;;;;;8.03;7.23;;;8.50;99.90;;;;;;4937364;29;20182;-73
2022/09/29 08:21:48;;;;;;;7.27;6.57;;;8.60;99.90;;;;;;4938274;29;20182;-73
2022/09/29 08:24:16;;;;;;;9.90;8.00;;;8.80;99.90;;;;;;4937332;29;20181;-73
2022/09/29 08:26:42;;;;;;;6.88;5.97;;;9.00;99.90;;;;;;4937437;29;20678;-75
2022/09/29 08:29:08;;;;;;;8.77;6.60;;;9.20;99.90;;;;;;4937370;29;20181;-73
2022/09/29 08:31:36;;;;;;;7.37;6.67;;;9.30;99.90;;;;;;4937467;29;20580;-73
2022/09/29 08:34:02;;;;;;;7.93;7.13;;;9.40;99.90;;;;;;4936950;29;20476;-74
2022/09/29 08:36:28;;;;;;;8.83;7.13;;;9.50;99.90;;;;;;4936671;29;20694;-73
2022/09/29 08:38:55;;;;;;;10.70;8.67;;;9.60;99.90;;;;;;4935980;29;20182;-74
2022/09/29 08:41:27;;;;;;;11.70;7.88;;;9.70;99.90;;;;;;4936964;29;20772;-73
2022/09/29 08:44:09;;;;;;;7.10;6.40;;;10.00;99.90;;;;;;4936890;29;20184;-73
2022/09/29 08:46:50;;;;;;;9.40;7.40;;;10.20;99.90;;;;;;4936605;29;20216;-74
2022/09/29 08:49:28;;;;;;;8.30;6.00;;;10.60;99.90;;;;;;4935825;29;20189;-73
2022/09/29 08:51:58;;;;;;;10.40;6.40;;;11.10;99.90;;;;;;4948584;29;20232;-74
2022/09/29 08:54:33;;;;;;;8.80;5.70;;;11.50;99.90;;;;;;4952534;29;20528;-74
2022/09/29 08:57:00;;;;;;;7.53;6.00;;;12.10;99.90;;;;;;4937215;29;20252;-73
2022/09/29 08:59:28;;;;;;;11.63;5.63;;;12.40;99.90;;;;;;4936806;29;20425;-74
2022/09/29 09:02:18;;;;;;;5.33;4.70;;;12.80;99.90;;;;;;4936666;29;20794;-73
2022/09/29 09:05:02;;;;;;;7.80;4.60;;;13.00;99.90;;;;;;4934982;29;20418;-74
2022/09/29 09:07:53;;;;;;;6.23;5.43;;;13.60;99.90;;;;;;4936178;29;20981;-72
2022/09/29 09:10:30;;;;;;;6.07;5.47;;;14.10;99.90;;;;;;4936383;29;20532;-73
2022/09/29 09:13:15;;;;;;;6.90;5.93;;;14.10;99.90;;;;;;4936472;29;20432;-72
2022/09/29 09:16:02;;;;;;;7.07;5.00;;;14.10;99.90;;;;;;4936143;29;20464;-74
2022/09/29 09:18:41;;;;;;;8.80;5.60;;;14.50;99.90;;;;;;4954782;29;20476;-74
2022/09/29 09:21:08;;;;;;;10.80;5.50;;;14.80;99.90;;;;;;4955720;29;20464;-74
2022/09/29 09:23:37;;;;;;;6.10;5.50;;;15.20;99.90;;;;;;4955554;29;20431;-74
2022/09/29 09:26:04;;;;;;;5.57;4.97;;;15.80;99.90;;;;;;4954428;28;20419;-74
2022/09/29 09:28:42;;;;;;;7.03;5.30;;;16.40;99.90;;;;;;4954784;29;20420;-75
2022/09/29 09:31:22;;;;;;;8.10;5.17;;;16.60;99.90;;;;;;4955412;29;20818;-74
2022/09/29 09:34:18;;;;;;;5.77;4.93;;;16.20;99.90;;;;;;4955165;29;20558;-75
2022/09/29 09:36:51;;;;;;;6.00;5.13;;;17.30;99.90;;;;;;4950323;29;20485;-74
2022/09/29 09:39:23;;;;;;;7.10;4.90;;;17.60;99.90;;;;;;4936293;29;20495;-74
2022/09/29 09:41:53;;;;;;;6.07;5.20;;;17.60;99.90;;;;;;4936173;29;20782;-74
2022/09/29 09:44:24;;;;;;;7.10;4.50;;;18.10;99.90;;;;;;4935760;29;20429;-74
2022/09/29 09:46:57;;;;;;;7.07;4.70;;;18.70;99.90;;;;;;4940998;29;20434;-74
2022/09/29 09:49:39;;;;;;;4.70;3.67;;;18.60;99.90;;;;;;4955165;29;20423;-75
2022/09/29 09:52:23;;;;;;;6.50;4.00;;;19.00;99.90;;;;;;4954649;29;20483;-74
2022/09/29 09:54:57;;;;;;;5.80;3.90;;;18.80;99.90;;;;;;4937328;29;20478;-74
2022/09/29 09:57:31;;;;;;;6.67;4.60;;;18.70;99.90;;;;;;4945238;29;20449;-74
2022/09/29 10:00:03;;;;;;;6.67;3.97;;;18.60;99.90;;;;;;4935972;29;20419;-74
2022/09/29 10:02:30;;;;;;;11.07;3.53;;;19.00;99.90;;;;;;4935844;29;20398;-74
2022/09/29 10:04:55;;;;;;;5.80;4.00;;;19.60;99.90;;;;;;4935223;29;20933;-72
2022/09/29 10:07:28;;;;;;;4.07;3.57;;;20.00;99.90;;;;;;4935594;29;20441;-74
2022/09/29 10:09:55;;;;;;;6.30;3.73;;;20.00;99.90;;;;;;4948381;29;20271;-74
2022/09/29 10:12:23;;;;;;;5.40;3.30;;;20.30;99.90;;;;;;4955004;29;20870;-75
2022/09/29 10:15:04;;;;;;;5.73;3.30;;;19.90;99.90;;;;;;4954535;29;20463;-74
2022/09/29 10:17:37;;;;;;;7.47;4.30;;;19.70;99.90;;;;;;4954660;29;20424;-73
2022/09/29 10:20:06;;;;;;;6.50;3.80;;;20.60;99.90;;;;;;4954751;29;20459;-74
2022/09/29 10:22:33;;;;;;;4.53;3.50;;;21.30;99.90;;;;;;4950934;29;21046;-74
2022/09/29 10:25:14;;;;;;;7.10;4.30;;;20.90;99.90;;;;;;4918021;29;20452;-74
2022/09/29 10:27:43;;;;;;;4.23;3.83;;;20.80;99.90;;;;;;4935753;29;20463;-73
2022/09/29 10:30:21;;;;;;;6.83;3.80;;;20.80;99.90;;;;;;4935593;29;20471;-74
2022/09/29 10:32:47;;;;;;;7.17;3.40;;;21.40;99.90;;;;;;4935823;29;20853;-74
2022/09/29 10:35:25;;;;;;;4.63;3.60;;;20.50;99.90;;;;;;4933855;29;20469;-74
2022/09/29 10:38:05;;;;;;;7.37;4.40;;;20.30;99.90;;;;;;4944559;28;20200;-74
2022/09/29 10:40:31;;;;;;;3.50;3.17;;;20.70;99.90;;;;;;4958523;29;20741;-74
2022/09/29 10:42:57;;;;;;;5.83;3.53;;;20.20;99.90;;;;;;4958229;29;20391;-74
2022/09/29 10:45:24;;;;;;;5.00;3.10;;;20.40;99.90;;;;;;4957830;29;20177;-74
2022/09/29 10:48:03;;;;;;;4.47;2.90;;;20.40;99.90;;;;;;4958121;29;20455;-73
2022/09/29 10:50:48;;;;;;;6.20;2.57;;;19.90;99.90;;;;;;4956984;29;20945;-73
2022/09/29 10:53:32;;;;;;;4.03;2.60;;;19.80;99.90;;;;;;4938954;29;20432;-74
2022/09/29 10:56:00;;;;;;;4.40;2.60;;;19.10;99.90;;;;;;4954511;29;20428;-74
2022/09/29 10:58:35;;;;;;;3.73;2.73;;;18.60;99.90;;;;;;4958001;29;20428;-74
2022/09/29 11:01:09;;;;;;;2.97;2.00;;;17.40;99.90;;;;;;4957983;29;20758;-74
2022/09/29 11:03:38;;;;;;;4.57;2.63;;;16.90;99.90;;;;;;4957852;29;20387;-74
2022/09/29 11:06:13;;;;;;;6.93;2.50;;;17.00;99.90;;;;;;4957482;29;20418;-73
2022/09/29 11:08:57;;;;;;;3.70;2.87;;;16.60;99.90;;;;;;4951466;29;20403;-74
2022/09/29 11:11:38;;;;;;;4.03;2.73;;;16.80;99.90;;;;;;4938393;29;20473;-74
2022/09/29 11:14:05;;;;;;;4.17;2.43;;;17.20;99.90;;;;;;4941924;29;20563;-74
2022/09/29 11:16:35;;;;;;;5.60;3.80;;;17.30;99.90;;;;;;4938602;29;20459;-73
2022/09/29 11:19:09;;;;;;;4.20;2.67;;;17.60;99.90;;;;;;4938589;29;20469;-73
2022/09/29 11:21:41;;;;;;;2.50;2.20;;;18.10;99.90;;;;;;4938189;29;20385;-73
2022/09/29 11:27:06;;;;;;;4.20;2.10;;;19.10;99.90;;;;;;5256418;23;20964;-74
2022/09/29 11:30:00;;;;;;;2.43;1.70;;;18.80;99.90;;;;;;4957373;29;20425;-74
2022/09/29 11:32:50;;;;;;;3.67;1.80;;;18.10;99.90;;;;;;4956275;28;20959;-74
2022/09/29 11:35:50;;;;;;;3.60;1.90;;;17.50;99.90;;;;;;4956758;29;20450;-74
2022/09/29 11:38:16;;;;;;;3.97;2.17;;;17.30;99.90;;;;;;4954634;28;20425;-74
2022/09/29 11:41:03;;;;;;;5.13;1.70;;;16.50;99.90;;;;;;4957273;29;20416;-74
2022/09/29 11:43:50;;;;;;;10.47;6.37;;;16.70;99.90;;;;;;4957492;29;20179;-75
2022/09/29 11:46:30;;;;;;;7.80;4.83;;;16.60;99.90;;;;;;4956593;29;20527;-74
2022/09/29 11:49:17;;;;;;;6.37;4.17;;;17.00;99.90;;;;;;4956428;28;20447;-74
2022/09/29 11:51:54;;;;;;;4.97;4.47;;;17.10;99.90;;;;;;4957230;29;20447;-74
2022/09/29 11:54:29;;;;;;;6.87;4.93;;;17.10;99.90;;;;;;4956007;29;20438;-75
2022/09/29 11:57:21;;;;;;;8.10;4.77;;;17.20;99.90;;;;;;4956769;29;20836;-75
2022/09/29 11:59:55;;;;;;;8.00;4.80;;;17.00;99.90;;;;;;4926776;29;20510;-74
2022/09/29 12:03:05;;;;;;;7.70;4.67;;;17.10;99.90;;;;;;4956884;29;20408;-73
2022/09/29 12:05:55;;;;;;;7.47;5.83;;;16.80;99.90;;;;;;4956334;29;20436;-75
2022/09/29 12:09:02;;;;;;;7.30;5.93;;;16.50;99.90;;;;;;4957067;29;20460;-74
2022/09/29 12:11:49;;;;;;;9.07;6.40;;;16.30;99.90;;;;;;4948629;29;20487;-74
2022/09/29 12:14:34;;;;;;;8.07;6.33;;;16.30;99.90;;;;;;4956670;29;20460;-74
2022/09/29 12:17:07;;;;;;;7.00;5.37;;;16.50;99.90;;;;;;4956847;29;20396;-74
2022/09/29 12:19:38;;;;;;;8.10;5.47;;;16.20;99.90;;;;;;4956469;29;20408;-75
2022/09/29 12:22:08;;;;;;;8.30;5.53;;;16.00;99.90;;;;;;4956562;29;20415;-75
2022/09/29 12:24:40;;;;;;;11.63;6.73;;;16.10;99.90;;;;;;4956282;29;20412;-74
2022/09/29 12:27:36;;;;;;;7.17;4.67;;;16.10;99.90;;;;;;4956462;29;20773;-74
2022/09/29 12:30:29;;;;;;;6.13;5.17;;;16.10;99.90;;;;;;4956039;29;20399;-74
2022/09/29 12:33:29;;;;;;;8.23;5.23;;;15.90;99.90;;;;;;4956453;29;20495;-74
2022/09/29 12:36:42;;;;;;;5.73;4.70;;;15.90;99.90;;;;;;4949087;29;20448;-74
2022/09/29 12:39:09;;;;;;;5.30;4.40;;;16.00;99.90;;;;;;4956233;28;20423;-74
2022/09/29 12:41:41;;;;;;;5.60;4.80;;;16.00;99.90;;;;;;4956349;29;20413;-74
2022/09/29 12:44:28;;;;;;;4.73;3.90;;;16.20;99.90;;;;;;4956316;29;20444;-74
2022/09/29 12:47:12;;;;;;;8.63;4.60;;;16.20;99.90;;;;;;4956189;29;20408;-74
2022/09/29 12:50:02;;;;;;;7.43;4.50;;;16.30;99.90;;;;;;4956203;29;20391;-73
2022/09/29 12:52:45;;;;;;;7.70;5.17;;;16.10;99.90;;;;;;4956068;29;20774;-75
2022/09/29 12:55:24;;;;;;;5.40;4.60;;;16.10;99.90;;;;;;4955558;29;20515;-75
2022/09/29 12:57:53;;;;;;;12.57;4.90;;;16.00;99.90;;;;;;4955814;29;20436;-74
2022/09/29 13:00:18;;;;;;;4.90;3.80;;;16.20;99.90;;;;;;4954460;28;20424;-74
2022/09/29 13:02:56;;;;;;;4.67;3.70;;;16.50;99.90;;;;;;4955970;29;20451;-74
2022/09/29 13:05:48;;;;;;;4.43;3.00;;;17.30;99.90;;;;;;4955420;29;20563;-75
2022/09/29 13:08:32;;;;;;;5.57;4.10;;;18.30;99.90;;;;;;4955703;29;20480;-75
2022/09/29 13:11:36;;;;;;;4.90;3.40;;;19.20;99.90;;;;;;4955765;29;20930;-75
2022/09/29 13:14:32;;;;;;;5.23;3.10;;;20.10;99.90;;;;;;4955434;29;20471;-75
2022/09/29 13:17:07;;;;;;;6.10;2.97;;;21.10;99.90;;;;;;4955931;29;20383;-74
2022/09/29 13:19:58;;;;;;;6.50;3.63;;;21.80;99.90;;;;;;4955598;29;20386;-75
2022/09/29 13:22:51;;;;;;;4.20;2.83;;;22.50;99.90;;;;;;4955551;29;20408;-73
2022/09/29 13:25:53;;;;;;;7.20;2.97;;;23.30;99.90;;;;;;4955408;29;20828;-75